Worth Township, Michigan
Current Conditions -  °F | °C
As of 7:56 PM on Wednesday 22 Oct 2014 (Local Time) from KPHN Reporting Station
Clear Clear  
Wind Chill: 39°   Ceiling: Unl
Heat Index: 43°   Visibility: 10mi
Dew Point: 39°   Wind: 6mph
Humidity: 87%   Direction: 350°N
Pressure: 30.29"   Gusts: NA
Location:  43.1337°N, 82.5933°W
Report Text: KPHN 222356Z AUTO 35005KT 10SM CLR 06/04 A3029 RMK AO2
Loading
Personal Weather Stations






























Interactive Weather Map
Tropical Storm Tracking
New forecast layout! Learn more

10-Day Weather Forecast

Advertisements
Track Severe Weather on mobile